Terminal Aerodrome Forecast
Issued by NWS Cleveland, OH

Home | Current Version | Previous Version | Text Only | Print | Product List | Glossary Off
Versions: 1 2 3 4 5 6 7 8 9 10 11 12 13 14 15 16 17 18

000
FTUS41 KCLE 220252 AAA
TAFYNG
TAF AMD
KYNG 220252Z 2203/2224 VRB03KT P6SM SCT080 BKN120
     FM221000 VRB03KT 6SM BR SCT003 SCT120
      TEMPO 2210/2213 2SM BR BKN003
     FM221600 34008KT P6SM SCT025 BKN040=

USA.gov is the U.S. government's official web portal to all federal, state and local government web resources and services.